Huvudsida
METAR-TAF:

METAR-TAF

Flygplatser :

Chuuk International Airport

Weno, Mikronesien

latitud: 07-28N, longitud: 151-51E, höjd: 3 m

Aktuellt väderrapport

Denna rapport gjordes för 13 minuter sedan, klockan 05:50 UTC
Vind 6 kt från nord/nordost
Temperatur 31°C
Fuktighet 75%
Tryck 1006 hPa
Sikt: 24.1 km
Spridda moln på en höjd av 1400 ft, Högtornande cumulus.
Spridda moln på en höjd av 12000 ft
Mulet på en höjd av 28000 ft

METAR: PTKK 160550Z 03006KT 15SM SCT014TCU SCT120 OVC280 31/26 A2971 RMK TCU N-NE AND SE SLP062 60004 8/271 T03060260 10306 20283 55008

Tid: 16:03 (06:03 UTC)

Väderprognos

Denna rapport gjordes för 25 minuter sedan, klockan 05:38 UTC
Prognos gäller från 16 kl. 06 UTC till 17 kl. 06 UTC
Vind 8 kt från sydost
Sikt: 10 km
Få moln på en höjd av 1600 ft
Spridda moln på en höjd av 4000 ft
Spridda moln på en höjd av 12000 ft
skurar i närheten

TAF: PTKK 160538Z 1606/1706 14008KT P6SM VCSH FEW016 SCT040 SCT120

Aktuella väderrapporter och prognoser från 4000 flygplatser (METAR- och TAF-rapporter).

De tillgängliga stationerna syns som gula och röda prickar på kartan.

För musen över prickarna för att se namnen på stationerna.

Klicka sedan för att få väderrapporter och prognoser.

För att ändra kartan: Klicka på de gröna knapparna med ett svart kors på för att zooma in; den gröna knappen med ett streck på för att zooma ut; eller på de gröna pilarna för angränsande kartor.


METAR-TAF: